createdAt,value
2022-08-23T00:12:33.159Z,79.44
2022-08-23T00:27:29.486Z,80.1
2022-08-23T00:42:25.398Z,81.45
2022-08-23T00:57:22.096Z,82.83
2022-08-23T01:12:18.588Z,84.6
2022-08-23T01:27:13.740Z,83.66
2022-08-23T01:42:09.038Z,84.63
2022-08-23T01:57:04.579Z,86.75
2022-08-23T02:12:00.865Z,85.45
2022-08-23T02:26:57.231Z,86.14
2022-08-23T02:41:53.240Z,88.66
2022-08-23T02:56:49.631Z,88.75
2022-08-23T03:11:45.585Z,88.13
2022-08-23T03:26:41.655Z,91.09
2022-08-23T03:41:37.456Z,92.35
2022-08-23T03:56:33.311Z,93.29
2022-08-23T04:11:29.173Z,95.05
2022-08-23T04:41:21.295Z,97.1
2022-08-23T04:56:17.380Z,97.75
2022-08-23T05:11:14.033Z,94.24
2022-08-23T05:26:10.226Z,94.44
2022-08-23T05:41:07.016Z,90.59
2022-08-23T05:56:03.533Z,87.11
2022-08-23T06:11:00.438Z,82.54
2022-08-23T06:25:57.098Z,75.99
2022-08-23T06:40:53.980Z,70.25
2022-08-23T06:55:50.623Z,65.74
2022-08-23T07:10:47.574Z,59.48
2022-08-23T07:25:44.000Z,55.97
2022-08-23T07:40:40.935Z,53.59
2022-08-23T07:55:37.754Z,51.44
2022-08-23T08:10:34.087Z,49.32
2022-08-23T08:25:30.488Z,45.02
2022-08-23T08:40:27.557Z,41.61
2022-08-23T08:55:24.802Z,39.28
2022-08-23T09:10:21.307Z,36.41
2022-08-23T09:25:18.490Z,34.8
2022-08-23T09:40:16.360Z,31.26
2022-08-23T09:55:13.773Z,33.57
2022-08-23T10:10:11.544Z,32.91
2022-08-23T10:25:09.032Z,30.69
2022-08-23T10:40:06.479Z,30.87
2022-08-23T10:55:03.611Z,30.75
2022-08-23T11:10:00.687Z,29.65
2022-08-23T11:24:57.347Z,30.46
2022-08-23T11:39:53.112Z,30.32
2022-08-23T11:54:49.404Z,27.38
2022-08-23T12:09:46.452Z,25.48
2022-08-23T12:24:43.409Z,25.46
2022-08-23T12:39:39.780Z,26.64
2022-08-23T12:54:36.387Z,25.35
2022-08-23T13:09:32.469Z,25.38
2022-08-23T13:24:30.035Z,26.64
2022-08-23T13:39:23.428Z,25.29
2022-08-23T13:54:18.828Z,23.21
2022-08-23T14:09:14.237Z,23.8
2022-08-23T14:24:10.451Z,23.97
2022-08-23T14:39:05.979Z,26.16
2022-08-23T14:54:01.652Z,26.25
2022-08-23T15:08:57.997Z,25.89
2022-08-23T15:23:54.431Z,25.47
2022-08-23T15:38:50.982Z,26.33
2022-08-23T15:53:46.739Z,27.11
2022-08-23T16:08:42.510Z,27.33
2022-08-23T16:23:38.630Z,27.16
2022-08-23T16:38:34.672Z,28.93
2022-08-23T16:53:30.722Z,29.13
2022-08-23T17:08:26.495Z,29.89
2022-08-23T17:23:22.326Z,30.36
2022-08-23T17:38:18.639Z,33.28
2022-08-23T17:53:14.267Z,37.97
2022-08-23T18:08:10.088Z,39.72
2022-08-23T18:23:05.557Z,41.84
2022-08-23T18:38:01.070Z,40.05
2022-08-23T18:52:57.221Z,42.52
2022-08-23T19:07:53.114Z,43.42
2022-08-23T19:22:49.408Z,47.89
2022-08-23T19:37:45.538Z,52.12
2022-08-23T19:52:40.406Z,56.33
2022-08-23T20:07:36.420Z,58.6
2022-08-23T20:22:32.615Z,60.89
2022-08-23T20:37:28.417Z,63.72
2022-08-23T20:52:24.461Z,65.86
2022-08-23T22:07:04.848Z,73.08
2022-08-23T22:22:01.036Z,73.75
2022-08-23T22:36:56.728Z,75.19
2022-08-23T22:51:54.916Z,77.96
2022-08-23T23:06:48.723Z,76.68
2022-08-23T23:21:44.845Z,78.56
2022-08-23T23:36:40.754Z,81.28
2022-08-23T23:51:36.987Z,81.95
